createdAt,value
2022-11-14T00:00:49.942Z,8.80
2022-11-14T00:03:35.827Z,8.80
2022-11-14T00:06:21.541Z,8.70
2022-11-14T00:09:07.306Z,8.70
2022-11-14T00:11:53.767Z,8.70
2022-11-14T00:14:39.750Z,8.70
2022-11-14T00:17:25.828Z,8.70
2022-11-14T00:20:12.830Z,8.70
2022-11-14T00:22:58.823Z,8.70
2022-11-14T00:25:45.661Z,8.70
2022-11-14T00:28:31.595Z,8.70
2022-11-14T00:31:18.030Z,8.70
2022-11-14T00:34:04.060Z,8.70
2022-11-14T00:36:49.650Z,8.60
2022-11-14T00:39:35.653Z,8.60
2022-11-14T00:42:21.538Z,8.60
2022-11-14T00:45:07.738Z,8.60
2022-11-14T00:47:53.552Z,8.60
2022-11-14T00:50:39.489Z,8.60
2022-11-14T00:53:25.090Z,8.60
2022-11-14T00:56:10.913Z,8.60
2022-11-14T00:58:56.944Z,8.50
2022-11-14T01:01:42.752Z,8.60
2022-11-14T01:04:28.738Z,8.50
2022-11-14T01:07:14.640Z,8.50
2022-11-14T01:10:00.525Z,8.50
2022-11-14T01:12:46.766Z,8.50
2022-11-14T01:15:33.038Z,8.50
2022-11-14T01:18:21.009Z,8.50
2022-11-14T01:21:12.652Z,8.50
2022-11-14T01:23:58.638Z,8.50
2022-11-14T01:26:44.706Z,8.50
2022-11-14T01:29:30.478Z,8.40
2022-11-14T01:32:16.458Z,8.40
2022-11-14T01:35:02.240Z,8.40
2022-11-14T01:37:48.052Z,8.40
2022-11-14T01:40:34.398Z,8.30
2022-11-14T01:43:24.666Z,8.30
2022-11-14T01:46:19.484Z,8.30
2022-11-14T01:49:30.436Z,8.30
2022-11-14T01:52:18.768Z,8.30
2022-11-14T01:55:08.624Z,8.20
2022-11-14T01:57:55.462Z,8.20
2022-11-14T02:00:41.889Z,8.10
2022-11-14T02:03:28.075Z,8.10
2022-11-14T02:06:19.461Z,8.10
2022-11-14T02:09:07.710Z,8.10
2022-11-14T02:11:56.515Z,8.10
2022-11-14T02:14:45.289Z,8.00
2022-11-14T02:17:32.259Z,8.00
2022-11-14T02:20:28.798Z,8.00
2022-11-14T02:23:15.869Z,7.90
2022-11-14T02:26:01.742Z,7.90
2022-11-14T02:28:48.065Z,7.90
2022-11-14T02:31:34.113Z,7.90
2022-11-14T02:34:20.359Z,7.80
2022-11-14T02:37:07.024Z,7.80
2022-11-14T02:39:52.935Z,7.80
2022-11-14T02:42:38.895Z,7.70
2022-11-14T02:45:25.427Z,7.70
2022-11-14T02:48:11.112Z,7.70
2022-11-14T02:50:57.050Z,7.70
2022-11-14T02:53:42.884Z,7.70
2022-11-14T02:56:28.668Z,7.70
2022-11-14T02:59:14.619Z,7.70
2022-11-14T03:02:00.600Z,7.70
2022-11-14T03:04:46.443Z,7.70
2022-11-14T03:07:32.427Z,7.70
2022-11-14T03:10:18.434Z,7.70
2022-11-14T03:13:04.388Z,7.70
2022-11-14T03:15:50.248Z,7.70
2022-11-14T03:18:36.486Z,7.70
2022-11-14T03:21:23.227Z,7.70
2022-11-14T03:24:09.161Z,7.70
2022-11-14T03:26:55.010Z,7.70
2022-11-14T03:29:41.079Z,7.70
2022-11-14T03:32:27.997Z,7.70
2022-11-14T03:35:13.860Z,7.70
2022-11-14T03:37:59.809Z,7.70
2022-11-14T03:40:45.736Z,7.70
2022-11-14T03:43:34.006Z,7.80
2022-11-14T03:46:20.044Z,7.70
2022-11-14T03:49:05.783Z,7.70
2022-11-14T03:51:51.702Z,7.80
2022-11-14T03:54:38.305Z,7.80
2022-11-14T03:57:24.215Z,7.80
2022-11-14T04:00:10.579Z,7.80
2022-11-14T04:02:57.420Z,7.80
2022-11-14T04:05:46.566Z,7.70
2022-11-14T04:08:33.019Z,7.70
2022-11-14T04:11:19.885Z,7.70
2022-11-14T04:14:05.542Z,7.70
2022-11-14T04:16:51.336Z,7.70
2022-11-14T04:19:37.184Z,7.70
2022-11-14T04:22:23.155Z,7.60
2022-11-14T04:25:09.937Z,7.60
2022-11-14T04:27:55.705Z,7.60
2022-11-14T04:30:41.703Z,7.60
2022-11-14T04:33:28.035Z,7.50
2022-11-14T04:36:13.587Z,7.50
2022-11-14T04:38:59.463Z,7.50
2022-11-14T04:41:45.439Z,7.40
2022-11-14T04:44:31.287Z,7.50
2022-11-14T04:47:17.410Z,7.40
2022-11-14T04:50:03.868Z,7.40
2022-11-14T04:52:53.063Z,7.40
2022-11-14T04:55:39.421Z,7.40
2022-11-14T04:58:25.179Z,7.40
2022-11-14T05:01:13.348Z,7.40
2022-11-14T05:03:59.478Z,7.40
2022-11-14T05:06:45.445Z,7.40
2022-11-14T05:09:31.319Z,7.40
2022-11-14T05:12:16.990Z,7.40
2022-11-14T05:15:02.933Z,7.40
2022-11-14T05:17:48.674Z,7.40
2022-11-14T05:20:34.839Z,7.40
2022-11-14T05:23:22.845Z,7.40
2022-11-14T05:26:15.082Z,7.40
2022-11-14T05:29:00.719Z,7.40
2022-11-14T05:31:46.569Z,7.40
2022-11-14T05:34:32.443Z,7.40
2022-11-14T05:37:18.406Z,7.40
2022-11-14T05:40:05.342Z,7.40
2022-11-14T05:42:55.236Z,7.40
2022-11-14T05:45:41.104Z,7.40
2022-11-14T05:48:27.301Z,7.40
2022-11-14T05:51:13.473Z,7.40
2022-11-14T05:53:59.158Z,7.40
2022-11-14T05:56:45.055Z,7.40
2022-11-14T05:59:31.240Z,7.40
2022-11-14T06:02:17.183Z,7.40
2022-11-14T06:05:06.790Z,7.40
2022-11-14T06:07:59.507Z,7.40
2022-11-14T06:10:45.082Z,7.40
2022-11-14T06:13:31.214Z,7.40
2022-11-14T06:16:19.295Z,7.40
2022-11-14T06:19:05.381Z,7.30
2022-11-14T06:21:50.982Z,7.40
2022-11-14T06:24:36.743Z,7.30
2022-11-14T06:27:22.518Z,7.30
2022-11-14T06:30:08.962Z,7.30
2022-11-14T06:33:01.568Z,7.30
2022-11-14T06:35:47.319Z,7.30
2022-11-14T06:38:35.250Z,7.30
2022-11-14T06:41:22.373Z,7.30
2022-11-14T06:44:09.700Z,7.30
2022-11-14T06:46:56.389Z,7.30
2022-11-14T06:49:42.334Z,7.30
2022-11-14T06:52:28.026Z,7.30
2022-11-14T06:55:13.970Z,7.30
2022-11-14T06:57:59.825Z,7.30
2022-11-14T07:00:45.602Z,7.40
2022-11-14T07:03:31.753Z,7.40
2022-11-14T07:06:23.283Z,7.50
2022-11-14T07:09:10.714Z,7.60
2022-11-14T07:11:56.564Z,7.60
2022-11-14T07:14:42.470Z,7.70
2022-11-14T07:17:31.153Z,7.80
2022-11-14T07:20:20.614Z,7.80
2022-11-14T07:23:06.212Z,7.90
2022-11-14T07:25:52.390Z,7.90
2022-11-14T07:28:40.789Z,7.90
2022-11-14T07:31:26.369Z,8.00
2022-11-14T07:34:12.568Z,8.00
2022-11-14T07:36:58.181Z,8.10
2022-11-14T07:39:44.196Z,8.20
2022-11-14T07:42:30.114Z,8.20
2022-11-14T07:45:15.956Z,8.20
2022-11-14T07:48:02.731Z,8.20
2022-11-14T07:50:48.279Z,8.30
2022-11-14T07:53:34.311Z,8.30
2022-11-14T07:56:22.171Z,8.30
2022-11-14T07:59:07.774Z,8.30
2022-11-14T08:01:53.668Z,8.40
2022-11-14T08:04:40.046Z,8.40
2022-11-14T08:07:25.803Z,8.40
2022-11-14T08:10:14.114Z,8.40
2022-11-14T08:13:25.221Z,8.50
2022-11-14T08:16:13.335Z,8.50
2022-11-14T08:19:00.518Z,8.50
2022-11-14T08:21:46.112Z,8.50
2022-11-14T08:24:31.885Z,8.50
2022-11-14T08:27:18.081Z,8.50
2022-11-14T08:30:04.204Z,8.60
2022-11-14T08:32:50.258Z,8.60
2022-11-14T08:35:36.113Z,8.50
2022-11-14T08:38:21.948Z,8.60
2022-11-14T08:41:08.053Z,8.60
2022-11-14T08:43:53.729Z,8.60
2022-11-14T08:46:39.313Z,8.60
2022-11-14T08:49:25.170Z,8.70
2022-11-14T08:52:16.341Z,8.70
2022-11-14T08:55:02.685Z,8.70
2022-11-14T08:57:49.851Z,8.80
2022-11-14T09:00:35.923Z,8.80
2022-11-14T09:03:21.787Z,8.80
2022-11-14T09:06:07.842Z,8.80
2022-11-14T09:08:53.525Z,8.80
2022-11-14T09:11:39.360Z,8.90
2022-11-14T09:14:25.123Z,8.90
2022-11-14T09:17:11.022Z,8.90
2022-11-14T09:19:57.085Z,8.90
2022-11-14T09:22:42.796Z,8.90
2022-11-14T09:25:30.438Z,9.00
2022-11-14T09:28:16.154Z,9.00
2022-11-14T09:31:07.573Z,9.00
2022-11-14T09:33:53.493Z,9.10
2022-11-14T09:36:39.587Z,9.10
2022-11-14T09:39:25.335Z,9.10
2022-11-14T09:42:16.838Z,9.10
2022-11-14T09:45:06.582Z,9.10
2022-11-14T09:48:13.351Z,9.10
2022-11-14T09:51:07.860Z,9.20
2022-11-14T09:54:06.920Z,9.30
2022-11-14T09:56:52.955Z,9.30
2022-11-14T09:59:38.621Z,9.40
2022-11-14T10:02:44.730Z,9.50
2022-11-14T10:05:42.157Z,9.50
2022-11-14T10:08:46.630Z,9.50
2022-11-14T10:11:53.793Z,9.60
2022-11-14T10:14:48.790Z,9.70
2022-11-14T10:17:53.300Z,9.80
2022-11-14T10:20:52.951Z,9.80
2022-11-14T10:23:55.647Z,9.80
2022-11-14T10:27:04.368Z,9.90
2022-11-14T10:30:11.643Z,9.90
2022-11-14T10:33:00.363Z,10.00
2022-11-14T10:35:54.516Z,10.00
2022-11-14T10:39:07.611Z,10.00
2022-11-14T10:42:00.964Z,10.10
2022-11-14T10:45:21.366Z,10.10
2022-11-14T10:48:33.280Z,10.10
2022-11-14T10:51:25.391Z,10.10
2022-11-14T10:54:29.898Z,10.20
2022-11-14T10:57:18.039Z,10.30
2022-11-14T11:00:14.049Z,10.40
2022-11-14T11:02:59.671Z,10.40
2022-11-14T11:05:57.997Z,10.40
2022-11-14T11:09:03.131Z,10.40
2022-11-14T11:12:03.904Z,10.50
2022-11-14T11:15:07.975Z,10.50
2022-11-14T11:18:06.254Z,10.50
2022-11-14T11:21:22.591Z,10.60
2022-11-14T11:24:09.346Z,10.60
2022-11-14T11:27:15.415Z,10.50
2022-11-14T11:30:20.422Z,10.50
2022-11-14T11:33:25.810Z,10.50
2022-11-14T11:36:17.868Z,10.50
2022-11-14T11:39:04.121Z,10.50
2022-11-14T11:45:02.054Z,10.50
2022-11-14T11:47:58.045Z,10.50
2022-11-14T11:50:43.830Z,10.50
2022-11-14T11:53:39.301Z,10.60
2022-11-14T11:56:27.907Z,10.60
2022-11-14T11:59:28.909Z,10.60
2022-11-14T12:02:26.340Z,10.60
2022-11-14T12:05:23.161Z,10.70
2022-11-14T12:08:30.943Z,10.70
2022-11-14T12:11:21.205Z,10.70
2022-11-14T12:14:45.773Z,10.80
2022-11-14T12:17:57.672Z,10.80
2022-11-14T12:21:02.622Z,10.80
2022-11-14T12:24:00.342Z,10.90
2022-11-14T12:27:25.213Z,10.90
2022-11-14T12:30:19.906Z,10.90
2022-11-14T12:33:27.896Z,10.80
2022-11-14T12:36:13.929Z,10.90
2022-11-14T12:39:01.106Z,11.00
2022-11-14T12:41:46.918Z,10.90
2022-11-14T12:44:38.815Z,10.90
2022-11-14T12:47:29.197Z,10.90
2022-11-14T12:50:35.237Z,10.80
2022-11-14T12:53:35.920Z,10.70
2022-11-14T12:56:52.613Z,10.70
2022-11-14T12:59:53.313Z,10.60
2022-11-14T13:02:57.163Z,10.50
2022-11-14T13:05:55.497Z,10.50
2022-11-14T13:09:08.100Z,10.40
2022-11-14T13:12:12.315Z,10.40
2022-11-14T13:15:37.716Z,10.40
2022-11-14T13:18:46.016Z,10.40
2022-11-14T13:21:47.048Z,10.40
2022-11-14T13:25:01.248Z,10.30
2022-11-14T13:31:15.818Z,10.30
2022-11-14T13:34:33.087Z,10.30
2022-11-14T13:37:45.139Z,10.30
2022-11-14T13:40:33.894Z,10.30
2022-11-14T13:44:03.406Z,10.30
2022-11-14T13:46:57.691Z,10.30
2022-11-14T13:49:43.325Z,10.30
2022-11-14T13:52:33.033Z,10.30
2022-11-14T13:55:27.621Z,10.20
2022-11-14T13:58:42.517Z,10.20
2022-11-14T14:01:28.980Z,10.20
2022-11-14T14:04:23.892Z,10.20
2022-11-14T14:07:51.421Z,10.20
2022-11-14T14:10:53.494Z,10.20
2022-11-14T14:13:56.582Z,10.20
2022-11-14T14:16:58.220Z,10.20
2022-11-14T14:20:05.496Z,10.20
2022-11-14T14:23:16.446Z,10.20
2022-11-14T14:26:16.734Z,10.20
2022-11-14T14:29:25.202Z,10.20
2022-11-14T14:32:19.050Z,10.20
2022-11-14T14:35:38.898Z,10.10
2022-11-14T14:38:29.229Z,10.10
2022-11-14T14:41:18.247Z,10.10
2022-11-14T14:44:03.968Z,10.20
2022-11-14T14:46:50.329Z,10.10
2022-11-14T14:49:38.204Z,10.10
2022-11-14T14:52:36.909Z,10.10
2022-11-14T14:55:32.792Z,10.10
2022-11-14T14:58:29.532Z,10.10
2022-11-14T15:01:16.754Z,10.10
2022-11-14T15:04:08.142Z,10.10
2022-11-14T15:06:57.453Z,10.10
2022-11-14T15:09:59.127Z,10.10
2022-11-14T15:12:45.425Z,10.10
2022-11-14T15:15:33.290Z,10.10
2022-11-14T15:18:31.818Z,10.10
2022-11-14T15:21:22.794Z,10.10
2022-11-14T15:24:23.572Z,10.10
2022-11-14T15:27:13.582Z,10.00
2022-11-14T15:30:03.601Z,10.00
2022-11-14T15:32:55.885Z,10.00
2022-11-14T15:35:41.688Z,10.00
2022-11-14T15:38:44.681Z,10.00
2022-11-14T15:41:32.660Z,10.00
2022-11-14T15:44:33.341Z,10.00
2022-11-14T15:47:22.913Z,10.00
2022-11-14T15:50:14.623Z,10.00
2022-11-14T15:53:18.587Z,10.00
2022-11-14T15:56:04.331Z,10.00
2022-11-14T15:58:50.901Z,10.00
2022-11-14T16:01:37.146Z,10.00
2022-11-14T16:04:32.549Z,10.00
2022-11-14T16:07:19.215Z,10.00
2022-11-14T16:10:19.007Z,10.00
2022-11-14T16:13:05.852Z,10.00
2022-11-14T16:15:51.822Z,10.00
2022-11-14T16:18:37.820Z,10.00
2022-11-14T16:21:23.812Z,10.00
2022-11-14T16:24:18.869Z,9.90
2022-11-14T16:27:04.565Z,9.90
2022-11-14T16:29:51.475Z,10.00
2022-11-14T16:32:37.569Z,10.00
2022-11-14T16:35:25.893Z,10.00
2022-11-14T16:38:13.579Z,10.00
2022-11-14T16:41:00.392Z,10.00
2022-11-14T16:43:46.574Z,10.00
2022-11-14T16:46:32.433Z,10.00
2022-11-14T16:49:19.701Z,10.00
2022-11-14T16:52:08.528Z,10.00
2022-11-14T16:54:54.637Z,10.00
2022-11-14T16:57:40.998Z,10.00
2022-11-14T17:00:27.715Z,10.00
2022-11-14T17:03:13.533Z,10.00
2022-11-14T17:05:59.425Z,10.00
2022-11-14T17:08:45.045Z,10.00
2022-11-14T17:11:31.344Z,10.00
2022-11-14T17:14:17.070Z,10.10
2022-11-14T17:17:03.077Z,10.10
2022-11-14T17:19:49.046Z,10.10
2022-11-14T17:22:34.703Z,10.10
2022-11-14T17:25:20.779Z,10.10
2022-11-14T17:28:06.732Z,10.10
2022-11-14T17:30:52.704Z,10.10
2022-11-14T17:33:38.616Z,10.10
2022-11-14T17:36:26.558Z,10.10
2022-11-14T17:39:12.481Z,10.10
2022-11-14T17:41:58.423Z,10.10
2022-11-14T17:44:44.446Z,10.10
2022-11-14T17:47:30.181Z,10.10
2022-11-14T17:50:16.210Z,10.10
2022-11-14T17:53:01.753Z,10.10
2022-11-14T17:55:54.187Z,10.00
2022-11-14T17:58:40.130Z,10.00
2022-11-14T18:01:26.304Z,10.00
2022-11-14T18:04:12.236Z,10.00
2022-11-14T18:06:58.166Z,10.00
2022-11-14T18:09:44.073Z,9.90
2022-11-14T18:12:29.881Z,9.90
2022-11-14T18:15:15.885Z,9.90
2022-11-14T18:18:01.839Z,9.90
2022-11-14T18:20:47.928Z,9.80
2022-11-14T18:23:35.274Z,9.80
2022-11-14T18:26:27.042Z,9.70
2022-11-14T18:29:13.761Z,9.70
2022-11-14T18:31:59.244Z,9.70
2022-11-14T18:34:45.122Z,9.70
2022-11-14T18:37:32.562Z,9.70
2022-11-14T18:40:19.361Z,9.60
2022-11-14T18:43:05.084Z,9.60
2022-11-14T18:45:50.992Z,9.60
2022-11-14T18:48:39.250Z,9.60
2022-11-14T18:51:28.223Z,9.60
2022-11-14T18:54:18.828Z,9.70
2022-11-14T18:57:04.734Z,9.70
2022-11-14T18:59:50.473Z,9.60
2022-11-14T19:02:36.418Z,9.70
2022-11-14T19:05:22.029Z,9.70
2022-11-14T19:08:08.223Z,9.60
2022-11-14T19:10:54.001Z,9.60
2022-11-14T19:13:41.124Z,9.70
2022-11-14T19:16:26.927Z,9.60
2022-11-14T19:19:12.853Z,9.60
2022-11-14T19:21:58.905Z,9.60
2022-11-14T19:24:47.211Z,9.60
2022-11-14T19:27:32.941Z,9.60
2022-11-14T19:30:18.993Z,9.60
2022-11-14T19:33:04.898Z,9.60
2022-11-14T19:35:50.681Z,9.60
2022-11-14T19:38:36.925Z,9.60
2022-11-14T19:41:27.826Z,9.60
2022-11-14T19:44:13.546Z,9.60
2022-11-14T19:46:59.121Z,9.60
2022-11-14T19:49:44.900Z,9.60
2022-11-14T19:52:30.738Z,9.60
2022-11-14T19:55:16.586Z,9.50
2022-11-14T19:58:02.453Z,9.50
2022-11-14T20:00:48.165Z,9.50
2022-11-14T20:03:34.489Z,9.50
2022-11-14T20:06:32.536Z,9.50
2022-11-14T20:09:18.102Z,9.60
2022-11-14T20:12:04.327Z,9.60
2022-11-14T20:14:52.785Z,9.60
2022-11-14T20:17:38.775Z,9.60
2022-11-14T20:20:24.740Z,9.50
2022-11-14T20:23:10.650Z,9.60
2022-11-14T20:25:57.176Z,9.60
2022-11-14T20:28:45.162Z,9.60
2022-11-14T20:31:32.225Z,9.60
2022-11-14T20:34:18.098Z,9.60
2022-11-14T20:37:10.995Z,9.60
2022-11-14T20:39:57.664Z,9.60
2022-11-14T20:42:48.433Z,9.60
2022-11-14T20:45:34.662Z,9.60
2022-11-14T20:48:20.259Z,9.70
2022-11-14T20:51:08.348Z,9.60
2022-11-14T20:53:55.247Z,9.70
2022-11-14T20:56:41.600Z,9.70
2022-11-14T20:59:27.579Z,9.70
2022-11-14T21:02:14.455Z,9.70
2022-11-14T21:05:00.825Z,9.70
2022-11-14T21:07:46.747Z,9.70
2022-11-14T21:10:45.805Z,9.70
2022-11-14T21:13:52.742Z,9.80
2022-11-14T21:16:39.722Z,9.80
2022-11-14T21:19:25.515Z,9.80
2022-11-14T21:22:11.287Z,9.80
2022-11-14T21:24:57.190Z,9.80
2022-11-14T21:27:43.220Z,9.80
2022-11-14T21:30:31.975Z,9.80
2022-11-14T21:33:17.601Z,9.80
2022-11-14T21:36:30.171Z,9.80
2022-11-14T21:39:17.520Z,9.80
2022-11-14T21:42:03.970Z,9.80
2022-11-14T21:44:49.813Z,9.80
2022-11-14T21:47:35.613Z,9.90
2022-11-14T21:50:21.586Z,9.90
2022-11-14T21:53:15.869Z,9.90
2022-11-14T21:56:23.828Z,10.00
2022-11-14T21:59:14.893Z,9.90
2022-11-14T22:02:19.162Z,10.00
2022-11-14T22:05:04.972Z,10.00
2022-11-14T22:07:50.638Z,10.00
2022-11-14T22:10:36.588Z,10.00
2022-11-14T22:13:22.523Z,10.00
2022-11-14T22:16:11.890Z,10.00
2022-11-14T22:19:04.499Z,10.00
2022-11-14T22:21:51.180Z,10.00
2022-11-14T22:24:36.718Z,10.10
2022-11-14T22:27:22.643Z,10.10
2022-11-14T22:30:09.203Z,10.10
2022-11-14T22:32:54.941Z,10.20
2022-11-14T22:35:40.936Z,10.20
2022-11-14T22:38:29.490Z,10.20
2022-11-14T22:41:21.255Z,10.20
2022-11-14T22:44:07.093Z,10.30
2022-11-14T22:46:53.148Z,10.30
2022-11-14T22:49:38.936Z,10.40
2022-11-14T22:52:24.886Z,10.40
2022-11-14T22:55:16.709Z,10.40
2022-11-14T22:58:03.696Z,10.50
2022-11-14T23:00:50.056Z,10.50
2022-11-14T23:03:36.244Z,10.50
2022-11-14T23:06:23.548Z,10.50
2022-11-14T23:09:09.189Z,10.60
2022-11-14T23:11:54.856Z,10.60
2022-11-14T23:14:40.747Z,10.60
2022-11-14T23:17:26.815Z,10.60
2022-11-14T23:20:16.403Z,10.60
2022-11-14T23:23:03.143Z,10.60
2022-11-14T23:25:48.807Z,10.70
2022-11-14T23:28:35.373Z,10.70
